sensor_id;sensor_type;location;lat;lon;timestamp;P1;durP1;ratioP1;P2;durP2;ratioP2
23360;SDS011;11852;50.082;18.554;2023-06-01T00:00:36;19.7;;;10.2;;
23360;SDS011;11852;50.082;18.554;2023-06-01T00:01:41;18.5;;;10.2;;
23360;SDS011;11852;50.082;18.554;2023-06-01T00:02:46;21.3;;;9.0;;
23360;SDS011;11852;50.082;18.554;2023-06-01T00:03:50;19.0;;;10.0;;
23360;SDS011;11852;50.082;18.554;2023-06-01T00:04:58;18.8;;;9.9;;
23360;SDS011;11852;50.082;18.554;2023-06-01T00:06:02;20.5;;;11.1;;
23360;SDS011;11852;50.082;18.554;2023-06-01T00:07:08;20.9;;;10.3;;
23360;SDS011;11852;50.082;18.554;2023-06-01T00:08:12;21.1;;;10.1;;
23360;SDS011;11852;50.082;18.554;2023-06-01T00:09:17;18.7;;;11.2;;
23360;SDS011;11852;50.082;18.554;2023-06-01T00:10:22;21.3;;;10.4;;
23360;SDS011;11852;50.082;18.554;2023-06-01T00:11:27;21.5;;;11.1;;
23360;SDS011;11852;50.082;18.554;2023-06-01T00:12:32;21.4;;;10.8;;
23360;SDS011;11852;50.082;18.554;2023-06-01T00:13:36;19.1;;;10.0;;
23360;SDS011;11852;50.082;18.554;2023-06-01T00:14:41;19.5;;;10.8;;
23360;SDS011;11852;50.082;18.554;2023-06-01T00:15:46;18.9;;;10.4;;
23360;SDS011;11852;50.082;18.554;2023-06-01T00:16:51;23.5;;;10.9;;
23360;SDS011;11852;50.082;18.554;2023-06-01T00:17:56;20.7;;;10.5;;
23360;SDS011;11852;50.082;18.554;2023-06-01T00:19:00;20.2;;;10.9;;
23360;SDS011;11852;50.082;18.554;2023-06-01T00:20:08;22.3;;;10.7;;
23360;SDS011;11852;50.082;18.554;2023-06-01T00:21:13;20.5;;;10.2;;
23360;SDS011;11852;50.082;18.554;2023-06-01T00:22:18;21.6;;;10.8;;
23360;SDS011;11852;50.082;18.554;2023-06-01T00:23:23;22.1;;;10.7;;
23360;SDS011;11852;50.082;18.554;2023-06-01T00:24:28;20.2;;;10.1;;
23360;SDS011;11852;50.082;18.554;2023-06-01T00:25:33;22.6;;;9.6;;
23360;SDS011;11852;50.082;18.554;2023-06-01T00:26:37;19.4;;;9.2;;
23360;SDS011;11852;50.082;18.554;2023-06-01T00:27:43;17.0;;;9.1;;
23360;SDS011;11852;50.082;18.554;2023-06-01T00:28:48;15.0;;;8.1;;
23360;SDS011;11852;50.082;18.554;2023-06-01T00:29:52;19.9;;;8.4;;
23360;SDS011;11852;50.082;18.554;2023-06-01T00:30:57;16.8;;;9.0;;
23360;SDS011;11852;50.082;18.554;2023-06-01T00:32:02;21.8;;;9.8;;
23360;SDS011;11852;50.082;18.554;2023-06-01T00:33:07;20.6;;;9.8;;
23360;SDS011;11852;50.082;18.554;2023-06-01T00:34:12;18.9;;;9.8;;
23360;SDS011;11852;50.082;18.554;2023-06-01T00:35:17;19.5;;;9.6;;
23360;SDS011;11852;50.082;18.554;2023-06-01T00:36:22;22.3;;;10.3;;
23360;SDS011;11852;50.082;18.554;2023-06-01T00:37:26;16.9;;;9.4;;
23360;SDS011;11852;50.082;18.554;2023-06-01T00:38:31;17.4;;;9.0;;
23360;SDS011;11852;50.082;18.554;2023-06-01T00:39:36;15.6;;;8.8;;
23360;SDS011;11852;50.082;18.554;2023-06-01T00:40:41;18.4;;;8.7;;
23360;SDS011;11852;50.082;18.554;2023-06-01T00:41:45;21.5;;;9.4;;
23360;SDS011;11852;50.082;18.554;2023-06-01T00:42:50;22.2;;;9.3;;
23360;SDS011;11852;50.082;18.554;2023-06-01T00:43:55;21.5;;;9.8;;
23360;SDS011;11852;50.082;18.554;2023-06-01T00:45:00;15.9;;;9.0;;
23360;SDS011;11852;50.082;18.554;2023-06-01T00:46:05;17.4;;;9.3;;
23360;SDS011;11852;50.082;18.554;2023-06-01T00:47:10;18.4;;;9.0;;
23360;SDS011;11852;50.082;18.554;2023-06-01T00:48:14;17.7;;;9.2;;
23360;SDS011;11852;50.082;18.554;2023-06-01T00:49:19;21.8;;;8.9;;
23360;SDS011;11852;50.082;18.554;2023-06-01T00:50:24;18.2;;;8.6;;
23360;SDS011;11852;50.082;18.554;2023-06-01T00:51:29;17.9;;;9.1;;
23360;SDS011;11852;50.082;18.554;2023-06-01T00:52:34;18.2;;;8.1;;
23360;SDS011;11852;50.082;18.554;2023-06-01T00:53:39;16.4;;;8.8;;
23360;SDS011;11852;50.082;18.554;2023-06-01T00:54:43;17.3;;;8.9;;
23360;SDS011;11852;50.082;18.554;2023-06-01T00:55:48;17.4;;;9.3;;
23360;SDS011;11852;50.082;18.554;2023-06-01T00:56:53;24.0;;;9.6;;
23360;SDS011;11852;50.082;18.554;2023-06-01T00:57:58;16.4;;;9.4;;
23360;SDS011;11852;50.082;18.554;2023-06-01T00:59:03;17.7;;;9.0;;
23360;SDS011;11852;50.082;18.554;2023-06-01T01:00:08;18.1;;;9.6;;
23360;SDS011;11852;50.082;18.554;2023-06-01T01:01:12;18.2;;;9.1;;
23360;SDS011;11852;50.082;18.554;2023-06-01T01:02:17;19.0;;;9.8;;
23360;SDS011;11852;50.082;18.554;2023-06-01T01:03:22;20.0;;;9.2;;
23360;SDS011;11852;50.082;18.554;2023-06-01T01:04:27;20.3;;;10.2;;
23360;SDS011;11852;50.082;18.554;2023-06-01T01:05:32;19.5;;;10.2;;
23360;SDS011;11852;50.082;18.554;2023-06-01T01:11:26;18.7;;;9.8;;
23360;SDS011;11852;50.082;18.554;2023-06-01T01:14:55;23.5;;;10.9;;
23360;SDS011;11852;50.082;18.554;2023-06-01T01:20:43;20.5;;;11.1;;
23360;SDS011;11852;50.082;18.554;2023-06-01T01:21:49;20.4;;;11.9;;
23360;SDS011;11852;50.082;18.554;2023-06-01T01:30:12;20.3;;;10.7;;
23360;SDS011;11852;50.082;18.554;2023-06-01T01:31:18;22.3;;;11.4;;
23360;SDS011;11852;50.082;18.554;2023-06-01T01:32:22;20.1;;;11.2;;
23360;SDS011;11852;50.082;18.554;2023-06-01T01:33:27;21.7;;;12.2;;
23360;SDS011;11852;50.082;18.554;2023-06-01T01:34:31;18.3;;;11.2;;
23360;SDS011;11852;50.082;18.554;2023-06-01T01:35:36;18.9;;;11.1;;
23360;SDS011;11852;50.082;18.554;2023-06-01T01:36:41;20.7;;;10.8;;
23360;SDS011;11852;50.082;18.554;2023-06-01T01:37:51;20.5;;;11.5;;
23360;SDS011;11852;50.082;18.554;2023-06-01T01:38:54;18.3;;;10.9;;
23360;SDS011;11852;50.082;18.554;2023-06-01T01:39:58;19.8;;;10.3;;
23360;SDS011;11852;50.082;18.554;2023-06-01T01:41:03;22.1;;;11.6;;
23360;SDS011;11852;50.082;18.554;2023-06-01T01:42:08;19.2;;;10.2;;
23360;SDS011;11852;50.082;18.554;2023-06-01T01:43:13;23.2;;;10.9;;
23360;SDS011;11852;50.082;18.554;2023-06-01T01:44:18;24.6;;;10.6;;
23360;SDS011;11852;50.082;18.554;2023-06-01T01:45:22;18.8;;;10.5;;
23360;SDS011;11852;50.082;18.554;2023-06-01T01:46:28;23.4;;;10.3;;
23360;SDS011;11852;50.082;18.554;2023-06-01T01:47:36;18.3;;;9.9;;
23360;SDS011;11852;50.082;18.554;2023-06-01T01:48:41;19.8;;;9.7;;
23360;SDS011;11852;50.082;18.554;2023-06-01T01:49:46;19.1;;;10.1;;
23360;SDS011;11852;50.082;18.554;2023-06-01T01:50:51;17.9;;;9.0;;
23360;SDS011;11852;50.082;18.554;2023-06-01T01:53:07;17.8;;;8.8;;
23360;SDS011;11852;50.082;18.554;2023-06-01T01:54:12;17.9;;;9.6;;
23360;SDS011;11852;50.082;18.554;2023-06-01T01:55:17;21.5;;;9.3;;
23360;SDS011;11852;50.082;18.554;2023-06-01T01:56:21;16.9;;;8.8;;
23360;SDS011;11852;50.082;18.554;2023-06-01T01:57:26;18.1;;;8.9;;
23360;SDS011;11852;50.082;18.554;2023-06-01T01:58:31;16.9;;;8.5;;
23360;SDS011;11852;50.082;18.554;2023-06-01T01:59:36;20.7;;;8.8;;
23360;SDS011;11852;50.082;18.554;2023-06-01T02:00:41;24.7;;;8.5;;
23360;SDS011;11852;50.082;18.554;2023-06-01T02:01:45;18.0;;;8.5;;
23360;SDS011;11852;50.082;18.554;2023-06-01T02:02:50;16.6;;;8.6;;
23360;SDS011;11852;50.082;18.554;2023-06-01T02:04:01;15.9;;;8.1;;
23360;SDS011;11852;50.082;18.554;2023-06-01T02:05:06;16.8;;;8.1;;
23360;SDS011;11852;50.082;18.554;2023-06-01T02:06:11;18.3;;;8.4;;
23360;SDS011;11852;50.082;18.554;2023-06-01T02:07:16;18.9;;;7.7;;
23360;SDS011;11852;50.082;18.554;2023-06-01T02:08:20;18.5;;;8.3;;
23360;SDS011;11852;50.082;18.554;2023-06-01T02:09:25;16.4;;;8.3;;
23360;SDS011;11852;50.082;18.554;2023-06-01T02:10:30;17.4;;;8.2;;
23360;SDS011;11852;50.082;18.554;2023-06-01T02:11:35;15.1;;;7.7;;
23360;SDS011;11852;50.082;18.554;2023-06-01T02:12:40;15.3;;;8.0;;
23360;SDS011;11852;50.082;18.554;2023-06-01T02:13:44;14.8;;;6.9;;
23360;SDS011;11852;50.082;18.554;2023-06-01T02:14:49;14.9;;;7.4;;
23360;SDS011;11852;50.082;18.554;2023-06-01T02:15:54;15.0;;;7.4;;
23360;SDS011;11852;50.082;18.554;2023-06-01T02:16:59;16.5;;;7.3;;
23360;SDS011;11852;50.082;18.554;2023-06-01T02:18:04;13.4;;;7.7;;
23360;SDS011;11852;50.082;18.554;2023-06-01T02:19:09;16.4;;;7.3;;
23360;SDS011;11852;50.082;18.554;2023-06-01T02:20:15;15.4;;;8.0;;
23360;SDS011;11852;50.082;18.554;2023-06-01T02:21:20;16.5;;;7.4;;
23360;SDS011;11852;50.082;18.554;2023-06-01T02:22:25;15.3;;;7.5;;
23360;SDS011;11852;50.082;18.554;2023-06-01T02:23:30;15.1;;;7.9;;
23360;SDS011;11852;50.082;18.554;2023-06-01T02:24:35;17.3;;;7.7;;
23360;SDS011;11852;50.082;18.554;2023-06-01T02:25:40;16.3;;;7.8;;
23360;SDS011;11852;50.082;18.554;2023-06-01T02:26:45;16.3;;;7.4;;
23360;SDS011;11852;50.082;18.554;2023-06-01T02:27:50;17.8;;;7.4;;
23360;SDS011;11852;50.082;18.554;2023-06-01T02:28:56;13.6;;;7.7;;
23360;SDS011;11852;50.082;18.554;2023-06-01T02:30:02;16.9;;;7.7;;
23360;SDS011;11852;50.082;18.554;2023-06-01T02:31:08;14.5;;;7.4;;
23360;SDS011;11852;50.082;18.554;2023-06-01T02:32:15;16.6;;;7.4;;
23360;SDS011;11852;50.082;18.554;2023-06-01T02:33:20;16.0;;;7.7;;
23360;SDS011;11852;50.082;18.554;2023-06-01T02:34:25;19.7;;;7.6;;
23360;SDS011;11852;50.082;18.554;2023-06-01T02:35:30;19.7;;;7.6;;
23360;SDS011;11852;50.082;18.554;2023-06-01T02:36:35;18.2;;;8.0;;
23360;SDS011;11852;50.082;18.554;2023-06-01T02:37:40;18.8;;;9.0;;
23360;SDS011;11852;50.082;18.554;2023-06-01T02:38:45;17.2;;;8.3;;
23360;SDS011;11852;50.082;18.554;2023-06-01T02:39:50;14.6;;;8.4;;
23360;SDS011;11852;50.082;18.554;2023-06-01T02:40:56;15.2;;;8.0;;
23360;SDS011;11852;50.082;18.554;2023-06-01T02:42:01;14.9;;;7.9;;
23360;SDS011;11852;50.082;18.554;2023-06-01T02:43:06;14.7;;;8.0;;
23360;SDS011;11852;50.082;18.554;2023-06-01T02:44:12;18.2;;;8.1;;
23360;SDS011;11852;50.082;18.554;2023-06-01T02:45:17;18.7;;;8.2;;
23360;SDS011;11852;50.082;18.554;2023-06-01T02:46:24;17.5;;;7.6;;
23360;SDS011;11852;50.082;18.554;2023-06-01T02:47:29;15.4;;;7.9;;
23360;SDS011;11852;50.082;18.554;2023-06-01T02:48:35;17.2;;;7.8;;
23360;SDS011;11852;50.082;18.554;2023-06-01T02:49:41;17.3;;;8.2;;
23360;SDS011;11852;50.082;18.554;2023-06-01T02:50:45;16.3;;;7.8;;
23360;SDS011;11852;50.082;18.554;2023-06-01T02:51:50;18.6;;;7.7;;
23360;SDS011;11852;50.082;18.554;2023-06-01T02:52:55;18.5;;;7.9;;
23360;SDS011;11852;50.082;18.554;2023-06-01T02:54:01;20.1;;;7.9;;
23360;SDS011;11852;50.082;18.554;2023-06-01T02:55:06;17.7;;;7.9;;
23360;SDS011;11852;50.082;18.554;2023-06-01T02:56:12;17.3;;;7.4;;
23360;SDS011;11852;50.082;18.554;2023-06-01T02:57:17;18.1;;;8.4;;
23360;SDS011;11852;50.082;18.554;2023-06-01T02:58:22;20.4;;;8.2;;
23360;SDS011;11852;50.082;18.554;2023-06-01T02:59:27;19.9;;;8.4;;
23360;SDS011;11852;50.082;18.554;2023-06-01T03:00:33;16.0;;;8.0;;
23360;SDS011;11852;50.082;18.554;2023-06-01T03:01:38;17.2;;;8.5;;
23360;SDS011;11852;50.082;18.554;2023-06-01T03:02:47;17.4;;;8.4;;
23360;SDS011;11852;50.082;18.554;2023-06-01T03:03:52;21.1;;;8.7;;
23360;SDS011;11852;50.082;18.554;2023-06-01T03:04:57;18.0;;;9.0;;
23360;SDS011;11852;50.082;18.554;2023-06-01T03:06:02;15.7;;;7.9;;
23360;SDS011;11852;50.082;18.554;2023-06-01T03:07:07;18.5;;;8.3;;
23360;SDS011;11852;50.082;18.554;2023-06-01T03:08:12;21.2;;;8.2;;
23360;SDS011;11852;50.082;18.554;2023-06-01T03:09:17;20.8;;;8.4;;
23360;SDS011;11852;50.082;18.554;2023-06-01T03:10:22;25.2;;;8.7;;
23360;SDS011;11852;50.082;18.554;2023-06-01T03:11:28;16.7;;;8.3;;
23360;SDS011;11852;50.082;18.554;2023-06-01T03:12:33;28.4;;;9.4;;
23360;SDS011;11852;50.082;18.554;2023-06-01T03:13:38;23.3;;;9.4;;
23360;SDS011;11852;50.082;18.554;2023-06-01T03:14:43;19.0;;;9.0;;
23360;SDS011;11852;50.082;18.554;2023-06-01T03:15:47;20.1;;;9.0;;
23360;SDS011;11852;50.082;18.554;2023-06-01T03:16:52;21.8;;;8.9;;
23360;SDS011;11852;50.082;18.554;2023-06-01T03:17:57;21.7;;;8.5;;
23360;SDS011;11852;50.082;18.554;2023-06-01T03:19:02;16.8;;;8.7;;
23360;SDS011;11852;50.082;18.554;2023-06-01T03:20:07;22.0;;;9.1;;
23360;SDS011;11852;50.082;18.554;2023-06-01T03:21:14;25.8;;;8.8;;
23360;SDS011;11852;50.082;18.554;2023-06-01T03:22:18;26.4;;;10.0;;
23360;SDS011;11852;50.082;18.554;2023-06-01T03:23:23;25.7;;;9.9;;
23360;SDS011;11852;50.082;18.554;2023-06-01T03:24:28;29.0;;;10.5;;
23360;SDS011;11852;50.082;18.554;2023-06-01T03:25:34;28.5;;;10.7;;
23360;SDS011;11852;50.082;18.554;2023-06-01T03:26:40;28.4;;;11.2;;
23360;SDS011;11852;50.082;18.554;2023-06-01T03:27:45;23.0;;;10.1;;
23360;SDS011;11852;50.082;18.554;2023-06-01T03:28:50;25.2;;;9.9;;
23360;SDS011;11852;50.082;18.554;2023-06-01T03:29:56;25.4;;;9.7;;
23360;SDS011;11852;50.082;18.554;2023-06-01T03:31:00;23.3;;;9.4;;
23360;SDS011;11852;50.082;18.554;2023-06-01T03:32:06;23.4;;;8.7;;
23360;SDS011;11852;50.082;18.554;2023-06-01T03:33:11;22.6;;;9.2;;
23360;SDS011;11852;50.082;18.554;2023-06-01T03:34:17;25.1;;;9.4;;
23360;SDS011;11852;50.082;18.554;2023-06-01T03:35:23;21.7;;;9.1;;
23360;SDS011;11852;50.082;18.554;2023-06-01T03:36:29;18.7;;;9.1;;
23360;SDS011;11852;50.082;18.554;2023-06-01T03:37:34;21.4;;;8.4;;
23360;SDS011;11852;50.082;18.554;2023-06-01T03:38:39;24.6;;;9.4;;
23360;SDS011;11852;50.082;18.554;2023-06-01T03:39:45;24.1;;;9.5;;
23360;SDS011;11852;50.082;18.554;2023-06-01T03:40:50;26.5;;;9.1;;
23360;SDS011;11852;50.082;18.554;2023-06-01T03:41:55;17.0;;;7.8;;
23360;SDS011;11852;50.082;18.554;2023-06-01T03:43:00;16.9;;;8.5;;
23360;SDS011;11852;50.082;18.554;2023-06-01T03:44:05;17.7;;;7.9;;
23360;SDS011;11852;50.082;18.554;2023-06-01T03:45:12;16.0;;;7.9;;
23360;SDS011;11852;50.082;18.554;2023-06-01T03:46:17;20.8;;;7.8;;
23360;SDS011;11852;50.082;18.554;2023-06-01T03:47:24;13.5;;;6.8;;
23360;SDS011;11852;50.082;18.554;2023-06-01T03:48:29;16.9;;;7.1;;
23360;SDS011;11852;50.082;18.554;2023-06-01T03:49:33;15.5;;;7.4;;
23360;SDS011;11852;50.082;18.554;2023-06-01T03:50:38;13.5;;;7.1;;
23360;SDS011;11852;50.082;18.554;2023-06-01T03:51:43;15.9;;;7.4;;
23360;SDS011;11852;50.082;18.554;2023-06-01T03:52:48;15.8;;;7.3;;
23360;SDS011;11852;50.082;18.554;2023-06-01T03:53:53;19.0;;;7.5;;
23360;SDS011;11852;50.082;18.554;2023-06-01T03:55:00;16.0;;;7.2;;
23360;SDS011;11852;50.082;18.554;2023-06-01T03:56:04;17.4;;;7.3;;
23360;SDS011;11852;50.082;18.554;2023-06-01T03:57:09;15.6;;;7.2;;
23360;SDS011;11852;50.082;18.554;2023-06-01T03:58:23;17.5;;;7.0;;
23360;SDS011;11852;50.082;18.554;2023-06-01T03:59:32;15.2;;;7.6;;
23360;SDS011;11852;50.082;18.554;2023-06-01T04:00:37;20.3;;;7.1;;
23360;SDS011;11852;50.082;18.554;2023-06-01T04:01:42;16.0;;;7.4;;
23360;SDS011;11852;50.082;18.554;2023-06-01T04:02:47;16.6;;;6.7;;
23360;SDS011;11852;50.082;18.554;2023-06-01T04:03:54;18.6;;;7.2;;
23360;SDS011;11852;50.082;18.554;2023-06-01T04:04:59;18.2;;;6.8;;
23360;SDS011;11852;50.082;18.554;2023-06-01T04:06:03;17.3;;;6.9;;
23360;SDS011;11852;50.082;18.554;2023-06-01T04:07:08;15.7;;;6.8;;
23360;SDS011;11852;50.082;18.554;2023-06-01T04:08:13;17.2;;;7.1;;
23360;SDS011;11852;50.082;18.554;2023-06-01T04:09:18;20.7;;;6.9;;
23360;SDS011;11852;50.082;18.554;2023-06-01T04:10:23;19.9;;;7.1;;
23360;SDS011;11852;50.082;18.554;2023-06-01T04:11:28;13.5;;;6.6;;
23360;SDS011;11852;50.082;18.554;2023-06-01T04:12:32;18.4;;;7.2;;
23360;SDS011;11852;50.082;18.554;2023-06-01T04:13:37;16.7;;;6.7;;
23360;SDS011;11852;50.082;18.554;2023-06-01T04:14:42;17.0;;;7.2;;
23360;SDS011;11852;50.082;18.554;2023-06-01T04:15:47;17.8;;;7.1;;
23360;SDS011;11852;50.082;18.554;2023-06-01T04:16:52;15.7;;;7.2;;
23360;SDS011;11852;50.082;18.554;2023-06-01T04:17:57;15.9;;;6.8;;
23360;SDS011;11852;50.082;18.554;2023-06-01T04:19:01;13.1;;;6.4;;
23360;SDS011;11852;50.082;18.554;2023-06-01T04:21:16;15.7;;;7.0;;
23360;SDS011;11852;50.082;18.554;2023-06-01T04:22:22;16.7;;;6.8;;
23360;SDS011;11852;50.082;18.554;2023-06-01T04:23:27;14.4;;;6.4;;
23360;SDS011;11852;50.082;18.554;2023-06-01T04:24:33;15.4;;;6.5;;
23360;SDS011;11852;50.082;18.554;2023-06-01T04:25:38;12.8;;;6.7;;
23360;SDS011;11852;50.082;18.554;2023-06-01T04:26:43;11.9;;;5.8;;
23360;SDS011;11852;50.082;18.554;2023-06-01T04:27:48;13.9;;;6.2;;
23360;SDS011;11852;50.082;18.554;2023-06-01T04:28:55;17.5;;;6.5;;
23360;SDS011;11852;50.082;18.554;2023-06-01T04:30:01;16.6;;;6.3;;
23360;SDS011;11852;50.082;18.554;2023-06-01T04:31:07;12.8;;;6.3;;
23360;SDS011;11852;50.082;18.554;2023-06-01T04:32:13;17.2;;;6.3;;
23360;SDS011;11852;50.082;18.554;2023-06-01T04:33:17;20.0;;;6.6;;
23360;SDS011;11852;50.082;18.554;2023-06-01T04:34:22;14.7;;;6.5;;
23360;SDS011;11852;50.082;18.554;2023-06-01T04:35:27;11.5;;;6.1;;
23360;SDS011;11852;50.082;18.554;2023-06-01T04:36:33;13.6;;;6.4;;
23360;SDS011;11852;50.082;18.554;2023-06-01T04:37:41;11.8;;;6.0;;
23360;SDS011;11852;50.082;18.554;2023-06-01T04:38:49;12.4;;;5.7;;
23360;SDS011;11852;50.082;18.554;2023-06-01T04:39:54;14.3;;;6.0;;
23360;SDS011;11852;50.082;18.554;2023-06-01T04:40:59;12.0;;;6.2;;
23360;SDS011;11852;50.082;18.554;2023-06-01T04:42:04;11.6;;;6.6;;
23360;SDS011;11852;50.082;18.554;2023-06-01T04:43:09;12.2;;;6.2;;
23360;SDS011;11852;50.082;18.554;2023-06-01T04:44:15;14.7;;;6.2;;
23360;SDS011;11852;50.082;18.554;2023-06-01T04:45:20;14.2;;;6.2;;
23360;SDS011;11852;50.082;18.554;2023-06-01T04:46:25;11.6;;;5.7;;
23360;SDS011;11852;50.082;18.554;2023-06-01T04:47:31;17.8;;;6.4;;
23360;SDS011;11852;50.082;18.554;2023-06-01T04:48:35;12.0;;;6.5;;
23360;SDS011;11852;50.082;18.554;2023-06-01T04:49:40;11.5;;;6.0;;
23360;SDS011;11852;50.082;18.554;2023-06-01T04:50:46;14.8;;;7.3;;
23360;SDS011;11852;50.082;18.554;2023-06-01T04:51:51;14.7;;;6.9;;
23360;SDS011;11852;50.082;18.554;2023-06-01T04:52:56;11.8;;;6.9;;
23360;SDS011;11852;50.082;18.554;2023-06-01T04:54:02;18.2;;;7.6;;
23360;SDS011;11852;50.082;18.554;2023-06-01T04:55:07;15.5;;;7.5;;
23360;SDS011;11852;50.082;18.554;2023-06-01T04:56:12;14.8;;;7.4;;
23360;SDS011;11852;50.082;18.554;2023-06-01T04:57:17;15.6;;;7.5;;
23360;SDS011;11852;50.082;18.554;2023-06-01T04:58:22;19.4;;;7.5;;
23360;SDS011;11852;50.082;18.554;2023-06-01T04:59:26;15.6;;;7.5;;
23360;SDS011;11852;50.082;18.554;2023-06-01T05:00:31;14.9;;;7.4;;
23360;SDS011;11852;50.082;18.554;2023-06-01T05:01:36;17.5;;;7.1;;
23360;SDS011;11852;50.082;18.554;2023-06-01T05:02:41;14.6;;;7.1;;
23360;SDS011;11852;50.082;18.554;2023-06-01T05:03:46;13.4;;;6.8;;
23360;SDS011;11852;50.082;18.554;2023-06-01T05:04:51;14.1;;;7.1;;
23360;SDS011;11852;50.082;18.554;2023-06-01T05:05:55;15.2;;;6.6;;
23360;SDS011;11852;50.082;18.554;2023-06-01T05:07:00;14.9;;;7.3;;
23360;SDS011;11852;50.082;18.554;2023-06-01T05:08:05;15.3;;;7.4;;
23360;SDS011;11852;50.082;18.554;2023-06-01T05:09:10;13.6;;;7.4;;
23360;SDS011;11852;50.082;18.554;2023-06-01T05:10:15;15.2;;;7.0;;
23360;SDS011;11852;50.082;18.554;2023-06-01T05:11:20;15.1;;;6.8;;
23360;SDS011;11852;50.082;18.554;2023-06-01T05:12:25;14.6;;;7.0;;
23360;SDS011;11852;50.082;18.554;2023-06-01T05:13:30;16.5;;;7.5;;
23360;SDS011;11852;50.082;18.554;2023-06-01T05:14:34;15.6;;;6.8;;
23360;SDS011;11852;50.082;18.554;2023-06-01T05:15:39;14.4;;;7.0;;
23360;SDS011;11852;50.082;18.554;2023-06-01T05:16:44;15.6;;;6.8;;
23360;SDS011;11852;50.082;18.554;2023-06-01T05:17:49;13.8;;;7.2;;
23360;SDS011;11852;50.082;18.554;2023-06-01T05:19:03;18.4;;;6.9;;
23360;SDS011;11852;50.082;18.554;2023-06-01T05:20:14;20.0;;;7.2;;
23360;SDS011;11852;50.082;18.554;2023-06-01T05:21:20;18.8;;;6.9;;
23360;SDS011;11852;50.082;18.554;2023-06-01T05:22:25;15.1;;;6.6;;
23360;SDS011;11852;50.082;18.554;2023-06-01T05:23:29;16.9;;;6.8;;
23360;SDS011;11852;50.082;18.554;2023-06-01T05:24:36;18.8;;;7.2;;
23360;SDS011;11852;50.082;18.554;2023-06-01T05:25:48;19.2;;;6.8;;
23360;SDS011;11852;50.082;18.554;2023-06-01T05:27:03;18.0;;;7.4;;
23360;SDS011;11852;50.082;18.554;2023-06-01T05:28:08;17.2;;;7.4;;
23360;SDS011;11852;50.082;18.554;2023-06-01T05:29:14;23.0;;;7.3;;
23360;SDS011;11852;50.082;18.554;2023-06-01T05:30:19;17.7;;;7.5;;
23360;SDS011;11852;50.082;18.554;2023-06-01T05:31:26;23.2;;;7.6;;
23360;SDS011;11852;50.082;18.554;2023-06-01T05:32:32;17.1;;;6.9;;
23360;SDS011;11852;50.082;18.554;2023-06-01T05:33:36;21.3;;;7.5;;
23360;SDS011;11852;50.082;18.554;2023-06-01T05:34:48;21.2;;;6.9;;
23360;SDS011;11852;50.082;18.554;2023-06-01T05:35:54;22.1;;;7.1;;
23360;SDS011;11852;50.082;18.554;2023-06-01T05:37:01;15.4;;;6.8;;
23360;SDS011;11852;50.082;18.554;2023-06-01T05:38:08;21.3;;;6.9;;
23360;SDS011;11852;50.082;18.554;2023-06-01T05:39:14;20.4;;;6.7;;
23360;SDS011;11852;50.082;18.554;2023-06-01T05:40:21;16.3;;;6.6;;
23360;SDS011;11852;50.082;18.554;2023-06-01T05:41:26;18.3;;;7.4;;
23360;SDS011;11852;50.082;18.554;2023-06-01T05:42:31;19.6;;;6.7;;
23360;SDS011;11852;50.082;18.554;2023-06-01T05:43:39;18.2;;;7.2;;
23360;SDS011;11852;50.082;18.554;2023-06-01T05:44:45;18.8;;;6.8;;
23360;SDS011;11852;50.082;18.554;2023-06-01T05:45:50;18.3;;;6.4;;
23360;SDS011;11852;50.082;18.554;2023-06-01T05:46:58;17.6;;;6.4;;
23360;SDS011;11852;50.082;18.554;2023-06-01T05:48:08;19.2;;;7.0;;
23360;SDS011;11852;50.082;18.554;2023-06-01T05:49:18;22.4;;;7.1;;
23360;SDS011;11852;50.082;18.554;2023-06-01T05:50:24;18.6;;;6.3;;
23360;SDS011;11852;50.082;18.554;2023-06-01T05:51:30;22.1;;;6.4;;
23360;SDS011;11852;50.082;18.554;2023-06-01T05:52:40;19.3;;;7.1;;
23360;SDS011;11852;50.082;18.554;2023-06-01T05:53:50;19.9;;;7.2;;
23360;SDS011;11852;50.082;18.554;2023-06-01T05:54:56;20.8;;;7.4;;
23360;SDS011;11852;50.082;18.554;2023-06-01T05:56:01;17.0;;;7.2;;
23360;SDS011;11852;50.082;18.554;2023-06-01T05:57:06;21.0;;;7.6;;
23360;SDS011;11852;50.082;18.554;2023-06-01T05:58:10;24.8;;;8.0;;
23360;SDS011;11852;50.082;18.554;2023-06-01T05:59:22;24.3;;;7.8;;
23360;SDS011;11852;50.082;18.554;2023-06-01T06:00:27;22.4;;;8.3;;
23360;SDS011;11852;50.082;18.554;2023-06-01T06:01:34;21.0;;;7.9;;
23360;SDS011;11852;50.082;18.554;2023-06-01T06:02:39;20.6;;;8.2;;
23360;SDS011;11852;50.082;18.554;2023-06-01T06:03:45;20.5;;;8.2;;
23360;SDS011;11852;50.082;18.554;2023-06-01T06:04:50;21.7;;;7.9;;
23360;SDS011;11852;50.082;18.554;2023-06-01T06:05:55;21.9;;;8.2;;
23360;SDS011;11852;50.082;18.554;2023-06-01T06:07:00;18.4;;;7.6;;
23360;SDS011;11852;50.082;18.554;2023-06-01T06:08:06;15.0;;;7.2;;
23360;SDS011;11852;50.082;18.554;2023-06-01T06:09:12;19.8;;;8.0;;
23360;SDS011;11852;50.082;18.554;2023-06-01T06:10:16;16.8;;;7.7;;
23360;SDS011;11852;50.082;18.554;2023-06-01T06:11:20;19.5;;;7.3;;
23360;SDS011;11852;50.082;18.554;2023-06-01T06:12:25;18.1;;;6.9;;
23360;SDS011;11852;50.082;18.554;2023-06-01T06:13:30;16.0;;;7.1;;
23360;SDS011;11852;50.082;18.554;2023-06-01T06:14:35;17.5;;;6.9;;
23360;SDS011;11852;50.082;18.554;2023-06-01T06:15:40;16.7;;;6.9;;
23360;SDS011;11852;50.082;18.554;2023-06-01T06:16:45;18.5;;;6.8;;
23360;SDS011;11852;50.082;18.554;2023-06-01T06:17:50;18.5;;;7.0;;
23360;SDS011;11852;50.082;18.554;2023-06-01T06:18:56;17.2;;;6.7;;
23360;SDS011;11852;50.082;18.554;2023-06-01T06:20:01;14.0;;;6.4;;
23360;SDS011;11852;50.082;18.554;2023-06-01T06:21:06;21.7;;;6.9;;
23360;SDS011;11852;50.082;18.554;2023-06-01T06:22:11;15.2;;;6.9;;
23360;SDS011;11852;50.082;18.554;2023-06-01T06:23:17;18.7;;;7.0;;
23360;SDS011;11852;50.082;18.554;2023-06-01T06:24:21;15.2;;;6.3;;
23360;SDS011;11852;50.082;18.554;2023-06-01T06:25:26;15.4;;;7.0;;
23360;SDS011;11852;50.082;18.554;2023-06-01T06:26:32;19.1;;;7.0;;
23360;SDS011;11852;50.082;18.554;2023-06-01T06:27:37;17.4;;;6.9;;
23360;SDS011;11852;50.082;18.554;2023-06-01T06:28:42;17.9;;;6.4;;
23360;SDS011;11852;50.082;18.554;2023-06-01T06:29:47;15.7;;;6.6;;
23360;SDS011;11852;50.082;18.554;2023-06-01T06:30:53;13.8;;;7.0;;
23360;SDS011;11852;50.082;18.554;2023-06-01T06:31:59;15.9;;;6.5;;
23360;SDS011;11852;50.082;18.554;2023-06-01T06:33:03;14.1;;;6.4;;
23360;SDS011;11852;50.082;18.554;2023-06-01T06:34:08;12.6;;;6.3;;
23360;SDS011;11852;50.082;18.554;2023-06-01T06:35:13;18.7;;;6.7;;
23360;SDS011;11852;50.082;18.554;2023-06-01T06:36:19;16.6;;;6.5;;
23360;SDS011;11852;50.082;18.554;2023-06-01T06:37:23;15.1;;;6.3;;
23360;SDS011;11852;50.082;18.554;2023-06-01T06:38:28;16.6;;;6.3;;
23360;SDS011;11852;50.082;18.554;2023-06-01T06:39:33;15.7;;;6.4;;
23360;SDS011;11852;50.082;18.554;2023-06-01T06:40:38;15.0;;;6.8;;
23360;SDS011;11852;50.082;18.554;2023-06-01T06:41:43;15.3;;;7.0;;
23360;SDS011;11852;50.082;18.554;2023-06-01T06:42:48;19.7;;;7.0;;
23360;SDS011;11852;50.082;18.554;2023-06-01T06:43:53;14.9;;;5.7;;
23360;SDS011;11852;50.082;18.554;2023-06-01T06:45:01;16.8;;;6.4;;
23360;SDS011;11852;50.082;18.554;2023-06-01T06:46:07;15.7;;;6.1;;
23360;SDS011;11852;50.082;18.554;2023-06-01T06:47:15;14.6;;;6.1;;
23360;SDS011;11852;50.082;18.554;2023-06-01T06:48:21;19.0;;;6.8;;
23360;SDS011;11852;50.082;18.554;2023-06-01T06:49:26;18.9;;;6.8;;
23360;SDS011;11852;50.082;18.554;2023-06-01T06:50:33;15.7;;;6.1;;
23360;SDS011;11852;50.082;18.554;2023-06-01T06:51:37;18.8;;;7.2;;
23360;SDS011;11852;50.082;18.554;2023-06-01T06:52:42;15.9;;;6.2;;
23360;SDS011;11852;50.082;18.554;2023-06-01T06:53:47;20.7;;;6.9;;
23360;SDS011;11852;50.082;18.554;2023-06-01T06:54:52;13.1;;;6.3;;